createdAt,value
2023-03-26T00:01:50.178Z,90.98
2023-03-26T00:04:59.672Z,84.74
2023-03-26T00:08:05.880Z,81.56
2023-03-26T00:11:17.554Z,71.99
2023-03-26T00:14:30.740Z,52.76
2023-03-26T00:17:37.584Z,70.10
2023-03-26T00:20:46.249Z,75.05
2023-03-26T00:23:53.925Z,59.82
2023-03-26T00:26:59.994Z,68.25
2023-03-26T00:30:08.281Z,88.95
2023-03-26T00:33:17.740Z,77.37
2023-03-26T00:36:29.119Z,73.36
2023-03-26T00:39:41.945Z,56.85
2023-03-26T00:42:48.756Z,46.96
2023-03-26T00:45:58.463Z,50.09
2023-03-26T00:49:05.883Z,53.55
2023-03-26T00:52:14.565Z,56.50
2023-03-26T00:55:21.534Z,61.34
2023-03-26T00:58:27.524Z,61.81
2023-03-26T01:01:36.324Z,62.55
2023-03-26T01:04:43.029Z,57.20
2023-03-26T01:07:52.576Z,57.89
2023-03-26T01:11:07.611Z,78.78
2023-03-26T01:14:21.885Z,100.44
2023-03-26T01:17:34.533Z,106.73
2023-03-26T01:20:54.208Z,95.90
2023-03-26T01:24:09.831Z,110.04
2023-03-26T01:27:35.250Z,108.22
2023-03-26T01:30:55.164Z,109.19
2023-03-26T01:34:17.165Z,92.04
2023-03-26T01:37:44.194Z,75.20
2023-03-26T01:41:12.298Z,78.98
2023-03-26T01:44:35.501Z,90.47
2023-03-26T01:47:46.785Z,84.23
2023-03-26T01:50:56.599Z,80.18
2023-03-26T01:54:07.004Z,68.23
2023-03-26T01:57:37.000Z,68.69
2023-03-26T02:00:57.171Z,74.23
2023-03-26T02:04:19.856Z,67.40
2023-03-26T02:07:38.239Z,61.44
2023-03-26T02:10:49.106Z,52.06
2023-03-26T02:13:59.440Z,52.67
2023-03-26T02:17:06.417Z,64.34
2023-03-26T02:20:19.201Z,70.89
2023-03-26T02:23:30.160Z,76.81
2023-03-26T02:26:47.214Z,88.08
2023-03-26T02:30:05.267Z,85.63
2023-03-26T02:33:15.707Z,83.41
2023-03-26T02:36:27.837Z,77.63
2023-03-26T02:39:38.858Z,62.05
2023-03-26T02:42:53.445Z,51.53
2023-03-26T02:46:03.281Z,45.23
2023-03-26T02:49:32.475Z,51.30
2023-03-26T02:52:41.650Z,64.63
2023-03-26T02:55:47.813Z,87.84
2023-03-26T02:58:54.807Z,96.33
2023-03-26T03:02:03.797Z,96.14
2023-03-26T03:05:14.319Z,59.78
2023-03-26T03:08:21.355Z,33.80
2023-03-26T03:11:46.808Z,34.42
2023-03-26T03:14:53.072Z,34.02
2023-03-26T03:18:02.844Z,44.12
2023-03-26T03:21:11.614Z,54.60
2023-03-26T03:24:18.862Z,58.37
2023-03-26T03:27:28.142Z,51.70
2023-03-26T03:30:43.534Z,53.32
2023-03-26T03:33:59.407Z,56.86
2023-03-26T03:37:08.475Z,55.74
2023-03-26T03:40:23.356Z,52.87
2023-03-26T03:43:30.499Z,51.77
2023-03-26T03:46:54.590Z,52.10
2023-03-26T03:50:04.883Z,55.95
2023-03-26T03:53:16.191Z,55.57
2023-03-26T03:56:27.237Z,50.48
2023-03-26T03:59:58.468Z,39.62
2023-03-26T04:03:09.930Z,38.93
2023-03-26T04:06:20.514Z,37.57
2023-03-26T04:09:31.781Z,42.45
2023-03-26T04:12:42.875Z,45.21
2023-03-26T04:15:54.826Z,52.17
2023-03-26T04:19:02.932Z,63.15
2023-03-26T04:22:12.839Z,65.05
2023-03-26T04:25:33.577Z,77.83
2023-03-26T04:28:54.907Z,77.61
2023-03-26T04:32:09.405Z,88.87
2023-03-26T04:35:20.170Z,112.86
2023-03-26T04:38:44.889Z,147.34
2023-03-26T04:41:53.687Z,155.72
2023-03-26T04:45:03.455Z,142.97
2023-03-26T04:48:14.696Z,139.80
2023-03-26T04:51:27.367Z,133.59
2023-03-26T04:54:39.336Z,130.97
2023-03-26T04:58:03.705Z,124.26
2023-03-26T05:01:32.440Z,108.20
2023-03-26T05:04:39.522Z,83.35
2023-03-26T05:07:49.258Z,58.42
2023-03-26T05:11:00.705Z,45.34
2023-03-26T05:14:13.532Z,46.95
2023-03-26T05:17:24.019Z,47.02
2023-03-26T05:20:36.317Z,54.52
2023-03-26T05:23:45.025Z,56.75
2023-03-26T05:27:01.968Z,57.76
2023-03-26T05:30:10.919Z,55.46
2023-03-26T05:33:24.398Z,46.90
2023-03-26T05:36:40.066Z,46.02
2023-03-26T05:40:11.887Z,39.72
2023-03-26T05:43:28.643Z,35.97
2023-03-26T05:46:47.581Z,41.66
2023-03-26T05:50:00.410Z,36.31
2023-03-26T05:53:16.565Z,34.96
2023-03-26T05:56:44.620Z,31.69
2023-03-26T06:00:15.630Z,33.94
2023-03-26T06:03:24.990Z,33.43
2023-03-26T06:06:55.078Z,31.99
2023-03-26T06:10:01.191Z,30.46
2023-03-26T06:13:09.329Z,34.21
2023-03-26T06:16:27.133Z,64.43
2023-03-26T06:19:54.731Z,55.53
2023-03-26T06:23:13.166Z,38.37
2023-03-26T06:26:40.465Z,45.77
2023-03-26T06:30:02.204Z,50.82
2023-03-26T06:33:26.395Z,46.04
2023-03-26T06:36:32.606Z,57.85
2023-03-26T06:39:39.575Z,52.41
2023-03-26T06:43:10.928Z,57.89
2023-03-26T06:46:37.983Z,58.47
2023-03-26T06:50:05.128Z,55.48
2023-03-26T06:53:15.403Z,49.97
2023-03-26T06:56:41.694Z,47.82
2023-03-26T07:00:14.539Z,35.15
2023-03-26T07:03:42.437Z,38.07
2023-03-26T07:07:11.009Z,37.22
2023-03-26T07:10:36.173Z,36.74
2023-03-26T07:14:08.575Z,43.07
2023-03-26T07:17:31.643Z,48.35
2023-03-26T07:20:53.750Z,62.82
2023-03-26T07:24:11.320Z,98.24
2023-03-26T07:28:01.348Z,122.49
2023-03-26T07:31:42.550Z,175.16
2023-03-26T07:35:37.022Z,108.32
2023-03-26T07:39:31.265Z,108.98
2023-03-26T07:43:11.111Z,80.16
2023-03-26T07:46:57.887Z,60.04
2023-03-26T07:50:32.880Z,52.01
2023-03-26T07:53:52.527Z,53.54
2023-03-26T07:57:55.233Z,76.89
2023-03-26T08:01:31.290Z,93.89
2023-03-26T08:05:20.031Z,95.19
2023-03-26T08:08:50.993Z,64.32
2023-03-26T08:12:31.115Z,47.03
2023-03-26T08:15:59.454Z,57.89
2023-03-26T08:19:29.384Z,90.78
2023-03-26T08:22:43.663Z,87.18
2023-03-26T08:26:07.159Z,60.83
2023-03-26T08:29:27.001Z,83.11
2023-03-26T08:32:39.206Z,82.51
2023-03-26T08:35:55.152Z,79.66
2023-03-26T08:39:02.085Z,84.92
2023-03-26T08:43:08.493Z,57.48
2023-03-26T08:47:14.925Z,41.93
2023-03-26T08:51:14.319Z,49.58
2023-03-26T08:55:20.355Z,43.53
2023-03-26T08:59:17.447Z,44.36
2023-03-26T09:02:59.106Z,47.91
2023-03-26T09:06:56.619Z,57.07
2023-03-26T09:10:48.665Z,32.27
2023-03-26T09:14:48.232Z,30.90
2023-03-26T09:19:07.030Z,56.67
2023-03-26T09:23:15.378Z,38.36
2023-03-26T09:26:29.683Z,41.61
2023-03-26T09:30:48.638Z,66.49
2023-03-26T09:34:15.913Z,39.66
2023-03-26T09:37:36.993Z,29.28
2023-03-26T09:41:21.474Z,27.83
2023-03-26T09:45:15.765Z,28.66
2023-03-26T09:49:18.508Z,26.08
2023-03-26T09:52:59.351Z,32.86
2023-03-26T09:56:38.382Z,30.28
2023-03-26T10:00:28.750Z,24.37
2023-03-26T10:04:09.376Z,25.92
2023-03-26T10:07:45.185Z,28.21
2023-03-26T10:11:03.314Z,27.19
2023-03-26T10:14:27.151Z,24.35
2023-03-26T10:18:26.782Z,29.59
2023-03-26T10:21:50.654Z,27.25
2023-03-26T10:25:41.848Z,28.07
2023-03-26T10:29:24.013Z,32.80
2023-03-26T10:33:04.968Z,36.57
2023-03-26T10:36:35.759Z,32.14
2023-03-26T10:40:10.817Z,25.84
2023-03-26T10:44:05.623Z,21.02
2023-03-26T10:47:54.139Z,24.69
2023-03-26T10:51:36.696Z,23.45
2023-03-26T10:54:59.426Z,24.23
2023-03-26T10:58:26.700Z,23.18
2023-03-26T11:01:53.331Z,17.75
2023-03-26T11:05:38.119Z,18.16
2023-03-26T11:09:08.277Z,17.17
2023-03-26T11:12:29.399Z,15.90
2023-03-26T11:15:50.315Z,17.50
2023-03-26T11:19:06.456Z,18.28
2023-03-26T11:22:33.864Z,17.26
2023-03-26T11:26:06.385Z,18.14
2023-03-26T11:29:46.110Z,17.23
2023-03-26T11:33:00.092Z,25.92
2023-03-26T11:36:15.394Z,21.16
2023-03-26T11:39:44.411Z,24.69
2023-03-26T11:43:00.432Z,24.46
2023-03-26T11:46:15.724Z,21.20
2023-03-26T11:49:26.704Z,19.22
2023-03-26T11:52:32.820Z,29.73
2023-03-26T11:55:52.847Z,21.33
2023-03-26T11:59:21.809Z,17.66
2023-03-26T12:02:52.214Z,18.53
2023-03-26T12:06:04.117Z,24.61
2023-03-26T12:09:25.002Z,32.86
2023-03-26T12:12:42.696Z,24.26
2023-03-26T12:15:49.818Z,22.87
2023-03-26T12:19:11.850Z,21.42
2023-03-26T12:22:36.568Z,18.02
2023-03-26T12:25:43.999Z,44.27
2023-03-26T12:28:54.725Z,55.32
2023-03-26T12:32:09.798Z,35.70
2023-03-26T12:35:22.458Z,40.73
2023-03-26T12:39:16.647Z,41.48
2023-03-26T12:44:46.650Z,36.82
2023-03-26T12:47:26.413Z,47.82
2023-03-26T12:49:31.637Z,49.05
2023-03-26T12:53:19.475Z,50.11
2023-03-26T12:56:40.731Z,60.09
2023-03-26T13:00:09.564Z,55.02
2023-03-26T13:03:43.541Z,51.39
2023-03-26T13:07:19.674Z,32.11
2023-03-26T13:10:51.721Z,67.97
2023-03-26T13:14:28.668Z,75.15
2023-03-26T13:17:49.234Z,53.67
2023-03-26T13:21:17.471Z,34.02
2023-03-26T13:24:47.443Z,34.27
2023-03-26T13:28:27.478Z,33.92
2023-03-26T13:32:11.878Z,36.78
2023-03-26T13:35:37.543Z,25.98
2023-03-26T13:39:15.411Z,28.38
2023-03-26T13:42:41.665Z,31.54
2023-03-26T13:46:06.199Z,23.55
2023-03-26T13:49:18.745Z,39.41
2023-03-26T13:52:35.491Z,44.31
2023-03-26T13:55:53.598Z,36.48
2023-03-26T13:59:08.870Z,35.53
2023-03-26T14:02:27.602Z,37.49
2023-03-26T14:05:42.503Z,28.69
2023-03-26T14:08:59.982Z,37.38
2023-03-26T14:12:39.414Z,30.97
2023-03-26T14:15:56.270Z,34.47
2023-03-26T14:19:36.606Z,29.96
2023-03-26T14:23:05.333Z,95.81
2023-03-26T14:26:42.647Z,130.96
2023-03-26T14:30:28.951Z,218.35
2023-03-26T14:34:08.029Z,48.90
2023-03-26T14:37:57.739Z,77.66
2023-03-26T14:41:27.398Z,128.45
2023-03-26T14:45:26.249Z,90.69
2023-03-26T14:49:32.344Z,51.08
2023-03-26T14:52:52.013Z,74.60
2023-03-26T14:56:42.001Z,97.61
2023-03-26T15:01:04.226Z,75.00
2023-03-26T15:04:52.728Z,84.26
2023-03-26T15:09:07.167Z,40.75
2023-03-26T15:12:43.417Z,74.65
2023-03-26T15:16:45.364Z,65.36
2023-03-26T15:20:48.323Z,64.09
2023-03-26T15:24:40.874Z,158.85
2023-03-26T15:28:29.728Z,154.73
2023-03-26T15:32:33.716Z,95.19
2023-03-26T15:36:37.434Z,92.99
2023-03-26T15:40:32.849Z,116.08
2023-03-26T15:44:25.630Z,167.07
2023-03-26T15:48:02.554Z,75.39
2023-03-26T15:51:49.691Z,125.39
2023-03-26T15:55:17.071Z,210.05
2023-03-26T15:58:41.067Z,53.42
2023-03-26T16:02:07.995Z,61.15
2023-03-26T16:05:43.566Z,54.39
2023-03-26T16:09:10.459Z,103.32
2023-03-26T16:12:38.847Z,76.20
2023-03-26T16:15:46.825Z,75.67
2023-03-26T16:19:52.223Z,100.42
2023-03-26T16:23:04.746Z,106.56
2023-03-26T16:26:28.890Z,91.03
2023-03-26T16:30:13.306Z,123.79
2023-03-26T16:33:35.845Z,103.75
2023-03-26T16:36:50.257Z,131.79
2023-03-26T16:39:59.603Z,143.55
2023-03-26T16:43:48.940Z,98.11
2023-03-26T16:47:35.251Z,124.08
2023-03-26T16:50:58.076Z,128.37
2023-03-26T16:54:25.310Z,106.82
2023-03-26T16:57:41.479Z,82.23
2023-03-26T17:01:00.416Z,78.60
2023-03-26T17:04:20.935Z,81.42
2023-03-26T17:07:40.358Z,128.44
2023-03-26T17:11:03.507Z,101.82
2023-03-26T17:14:31.437Z,126.11
2023-03-26T17:18:15.654Z,113.35
2023-03-26T17:21:46.869Z,101.07
2023-03-26T17:25:08.141Z,89.72
2023-03-26T17:29:00.367Z,100.78
2023-03-26T17:32:15.285Z,107.33
2023-03-26T17:35:43.082Z,107.43
2023-03-26T17:39:07.694Z,96.33
2023-03-26T17:42:28.108Z,93.56
2023-03-26T17:45:40.675Z,122.62
2023-03-26T17:49:03.083Z,143.03
2023-03-26T17:52:25.677Z,127.10
2023-03-26T17:55:41.865Z,100.91
2023-03-26T17:59:11.227Z,82.19
2023-03-26T18:02:42.455Z,121.63
2023-03-26T18:06:12.291Z,95.12
2023-03-26T18:09:51.288Z,111.08
2023-03-26T18:13:41.607Z,144.11
2023-03-26T18:17:06.568Z,108.82
2023-03-26T18:20:36.818Z,143.22
2023-03-26T18:23:52.406Z,99.30
2023-03-26T18:27:04.862Z,96.25
2023-03-26T18:30:26.472Z,93.77
2023-03-26T18:33:46.545Z,78.55
2023-03-26T18:37:18.315Z,88.85
2023-03-26T18:40:35.897Z,99.10
2023-03-26T18:43:48.202Z,100.90
2023-03-26T18:46:58.527Z,105.47
2023-03-26T18:50:06.173Z,113.43
2023-03-26T18:53:22.224Z,114.70
2023-03-26T18:56:36.432Z,125.47
2023-03-26T18:59:47.371Z,113.57
2023-03-26T19:03:08.178Z,84.27
2023-03-26T19:06:21.240Z,92.52
2023-03-26T19:09:32.426Z,97.88
2023-03-26T19:12:41.687Z,73.66
2023-03-26T19:15:52.943Z,86.93
2023-03-26T19:19:14.353Z,75.15
2023-03-26T19:22:26.548Z,102.06
2023-03-26T19:25:41.807Z,108.62
2023-03-26T19:28:54.869Z,82.81
2023-03-26T19:32:07.933Z,78.63
2023-03-26T19:35:26.678Z,78.75
2023-03-26T19:38:45.768Z,87.02
2023-03-26T19:41:55.981Z,80.99
2023-03-26T19:45:18.616Z,78.14
2023-03-26T19:48:59.525Z,60.51
2023-03-26T19:52:18.458Z,55.58
2023-03-26T19:55:30.526Z,58.60
2023-03-26T19:58:36.635Z,67.43
2023-03-26T20:01:44.325Z,85.55
2023-03-26T20:04:51.001Z,81.80
2023-03-26T20:08:19.116Z,75.57
2023-03-26T20:11:33.610Z,83.04
2023-03-26T20:14:40.452Z,87.34
2023-03-26T20:17:50.349Z,94.94
2023-03-26T20:20:57.831Z,107.91
2023-03-26T20:24:16.654Z,121.65
2023-03-26T20:27:28.932Z,123.31
2023-03-26T20:30:37.879Z,102.00
2023-03-26T20:33:45.608Z,110.46
2023-03-26T20:36:55.575Z,107.78
2023-03-26T20:40:12.608Z,118.32
2023-03-26T20:43:22.057Z,127.53
2023-03-26T20:46:31.903Z,134.94
2023-03-26T20:49:38.042Z,137.71
2023-03-26T20:52:46.548Z,146.79
2023-03-26T20:55:55.196Z,180.14
2023-03-26T20:59:11.084Z,216.25
2023-03-26T21:02:18.609Z,204.35
2023-03-26T21:05:32.893Z,182.11
2023-03-26T21:08:40.076Z,190.84
2023-03-26T21:12:11.517Z,219.11
2023-03-26T21:15:23.437Z,216.54
2023-03-26T21:18:34.779Z,217.55
2023-03-26T21:22:00.201Z,180.22
2023-03-26T21:25:38.866Z,156.45
2023-03-26T21:28:54.870Z,145.20
2023-03-26T21:32:03.213Z,157.65
2023-03-26T21:35:11.767Z,149.45
2023-03-26T21:38:23.250Z,159.55
2023-03-26T21:41:41.543Z,144.12
2023-03-26T21:44:52.322Z,135.68
2023-03-26T21:48:17.660Z,159.01
2023-03-26T21:51:43.084Z,237.15
2023-03-26T21:54:50.064Z,127.30
2023-03-26T21:58:31.841Z,123.54
2023-03-26T22:01:54.910Z,100.87
2023-03-26T22:05:15.560Z,121.77
2023-03-26T22:08:32.844Z,116.62
2023-03-26T22:11:39.674Z,113.83
2023-03-26T22:14:46.081Z,106.97
2023-03-26T22:18:04.907Z,98.54
2023-03-26T22:21:11.341Z,92.15
2023-03-26T22:24:18.132Z,87.96
2023-03-26T22:27:24.154Z,81.93
2023-03-26T22:30:31.329Z,86.63
2023-03-26T22:33:41.037Z,93.88
2023-03-26T22:36:47.920Z,83.95
2023-03-26T22:39:53.789Z,80.69
2023-03-26T22:43:00.616Z,76.74
2023-03-26T22:46:11.082Z,76.97
2023-03-26T22:49:21.663Z,72.28
2023-03-26T22:52:27.822Z,82.79
2023-03-26T22:55:34.589Z,84.90
2023-03-26T22:58:41.108Z,89.57
2023-03-26T23:01:48.167Z,89.30
2023-03-26T23:04:56.890Z,80.57
2023-03-26T23:08:03.922Z,79.60
2023-03-26T23:11:16.453Z,80.94
2023-03-26T23:14:23.475Z,86.25
2023-03-26T23:17:29.461Z,91.18
2023-03-26T23:20:40.316Z,91.79
2023-03-26T23:23:46.462Z,86.81
2023-03-26T23:26:53.497Z,90.18
2023-03-26T23:29:59.616Z,98.04
2023-03-26T23:33:06.623Z,100.80
2023-03-26T23:36:18.900Z,101.20
2023-03-26T23:39:26.935Z,109.60
2023-03-26T23:42:34.757Z,109.31
2023-03-26T23:45:41.895Z,93.92
2023-03-26T23:48:52.354Z,101.29
2023-03-26T23:52:02.280Z,116.64
2023-03-26T23:55:09.742Z,119.74
2023-03-26T23:58:17.632Z,124.50
